Time;durP1;ratioP1;P1;durP2;ratioP2;P2;SDS_P1;SDS_P2;PMS_P1;PMS_P2;Temp;Humidity;BMP_temperature;BMP_pressure;BME280_temperature;BME280_humidity;BME280_pressure;Samples;Min_cycle;Max_cycle;Signal;HPM_P1;HPM_P2
2022/01/17 00:00:38;;;;;;;8.32;5.65;;;9.20;79.20;;;;;;5041164;28;20044;-85
2022/01/17 00:03:12;;;;;;;6.38;4.85;;;9.20;79.20;;;;;;5043916;28;20020;-86
2022/01/17 00:05:38;;;;;;;7.45;4.95;;;9.20;79.30;;;;;;5037092;28;20081;-84
2022/01/17 00:08:07;;;;;;;7.05;5.22;;;9.20;79.20;;;;;;5029577;28;20033;-85
2022/01/17 00:10:40;;;;;;;7.00;4.72;;;9.20;79.20;;;;;;5055097;28;20128;-85
2022/01/17 00:13:13;;;;;;;8.02;5.53;;;9.20;79.20;;;;;;5035608;28;20036;-85
2022/01/17 00:15:49;;;;;;;7.82;4.90;;;9.20;79.20;;;;;;5050866;28;20044;-86
2022/01/17 00:18:31;;;;;;;7.72;5.07;;;9.30;79.30;;;;;;5050865;28;20123;-85
2022/01/17 00:21:00;;;;;;;7.55;4.95;;;9.20;79.20;;;;;;5054901;28;20029;-87
2022/01/17 00:23:30;;;;;;;7.45;5.13;;;9.20;79.20;;;;;;5053306;28;20048;-85
2022/01/17 00:25:57;;;;;;;8.48;5.20;;;9.20;79.20;;;;;;5050481;28;20032;-86
2022/01/17 00:28:32;;;;;;;7.88;5.15;;;9.20;79.20;;;;;;5051352;28;20072;-85
2022/01/17 00:31:05;;;;;;;7.38;5.18;;;9.20;79.20;;;;;;5063498;28;20032;-85
2022/01/17 00:33:34;;;;;;;7.25;5.00;;;9.20;79.20;;;;;;5071416;28;20021;-85
2022/01/17 00:36:06;;;;;;;7.30;4.88;;;9.20;79.30;;;;;;5032905;28;20458;-85
2022/01/17 00:38:32;;;;;;;7.20;5.40;;;9.20;79.30;;;;;;5053603;28;20035;-88
2022/01/17 00:41:02;;;;;;;7.38;4.75;;;9.20;79.20;;;;;;5055725;28;20085;-84
2022/01/17 00:43:37;;;;;;;7.90;4.90;;;9.20;79.20;;;;;;5033888;28;20029;-84
2022/01/17 00:46:05;;;;;;;6.82;4.55;;;9.20;79.20;;;;;;5041205;28;20025;-84
2022/01/17 00:48:34;;;;;;;6.82;4.80;;;9.30;79.30;;;;;;5044826;28;20052;-86
2022/01/17 00:51:00;;;;;;;5.65;4.22;;;9.20;79.20;;;;;;5042519;28;20132;-85
2022/01/17 00:53:36;;;;;;;8.35;4.97;;;9.20;79.20;;;;;;5058960;28;20123;-85
2022/01/17 00:56:05;;;;;;;8.00;5.22;;;9.30;79.30;;;;;;5053381;28;20025;-85
2022/01/17 00:58:34;;;;;;;7.40;5.13;;;9.30;79.30;;;;;;5051489;28;20393;-85
2022/01/17 01:01:04;;;;;;;7.13;4.88;;;9.30;79.30;;;;;;5070882;28;20457;-84
2022/01/17 01:03:36;;;;;;;6.10;4.55;;;9.20;79.20;;;;;;5045233;28;20040;-85
2022/01/17 01:06:09;;;;;;;7.43;4.65;;;9.30;79.30;;;;;;5062979;28;20027;-85
2022/01/17 01:08:37;;;;;;;8.18;5.35;;;9.30;79.30;;;;;;5038537;28;20058;-83
2022/01/17 01:11:13;;;;;;;7.63;4.90;;;9.30;79.20;;;;;;5046031;28;20551;-87
2022/01/17 01:13:39;;;;;;;7.80;4.70;;;9.30;79.20;;;;;;5042733;28;20474;-84
2022/01/17 01:16:24;;;;;;;6.80;5.10;;;9.20;79.20;;;;;;5043863;28;20028;-85
2022/01/17 01:29:27;;;;;;;8.10;4.57;;;9.30;79.20;;;;;;5055028;28;20040;-85
2022/01/17 01:32:04;;;;;;;7.40;4.68;;;9.30;79.20;;;;;;5064720;28;20044;-85
2022/01/17 01:35:00;;;;;;;6.65;4.43;;;9.20;79.30;;;;;;5048682;28;20058;-86
2022/01/17 01:37:26;;;;;;;6.15;3.70;;;9.20;79.20;;;;;;5049237;28;20040;-86
2022/01/17 01:40:04;;;;;;;6.22;4.03;;;9.30;79.30;;;;;;5024588;28;20025;-86
2022/01/17 01:42:33;;;;;;;6.40;4.00;;;9.20;79.30;;;;;;5044343;28;20033;-85
2022/01/17 01:45:16;;;;;;;6.60;3.75;;;9.20;79.20;;;;;;5034231;28;20021;-86
2022/01/17 01:47:48;;;;;;;6.45;3.80;;;9.20;79.20;;;;;;5046577;28;20056;-86
2022/01/17 01:50:27;;;;;;;4.63;3.25;;;9.30;79.30;;;;;;5043597;28;20032;-86
2022/01/17 01:52:57;;;;;;;6.35;3.72;;;9.30;79.30;;;;;;5043072;28;20040;-86
2022/01/17 01:55:24;;;;;;;6.78;3.58;;;9.20;79.20;;;;;;5040062;28;20025;-85
2022/01/17 01:57:53;;;;;;;5.13;3.20;;;9.20;79.20;;;;;;5052846;28;20058;-85
2022/01/17 02:00:29;;;;;;;5.80;3.25;;;9.20;79.20;;;;;;5054340;28;20036;-86
2022/01/17 02:03:22;;;;;;;5.38;3.03;;;9.20;79.20;;;;;;5058964;28;20025;-85
2022/01/17 02:05:54;;;;;;;5.30;2.90;;;9.20;79.30;;;;;;5056498;28;20182;-90
2022/01/17 02:08:20;;;;;;;4.88;2.90;;;9.20;79.20;;;;;;5069165;28;20078;-86
2022/01/17 02:10:46;;;;;;;5.40;2.70;;;9.20;79.20;;;;;;5033446;28;20362;-85
2022/01/17 02:13:17;;;;;;;5.13;2.47;;;9.20;79.20;;;;;;5058465;28;20037;-85
2022/01/17 02:15:47;;;;;;;6.10;2.80;;;9.20;79.20;;;;;;5061776;28;20020;-85
2022/01/17 02:18:19;;;;;;;5.78;2.50;;;9.20;79.20;;;;;;5054260;28;20032;-88
2022/01/17 02:21:08;;;;;;;5.07;2.70;;;9.20;79.30;;;;;;5072266;28;20071;-88
2022/01/17 02:23:34;;;;;;;3.95;2.50;;;9.20;79.30;;;;;;5052018;28;20048;-88
2022/01/17 02:26:01;;;;;;;3.30;2.15;;;9.20;79.20;;;;;;5065132;28;20024;-88
2022/01/17 02:28:31;;;;;;;5.50;2.60;;;9.20;79.30;;;;;;5028963;28;20063;-86
2022/01/17 02:30:57;;;;;;;4.65;2.40;;;9.20;79.30;;;;;;5056872;28;20030;-86
2022/01/17 02:33:23;;;;;;;5.30;2.30;;;9.20;79.30;;;;;;5040182;28;20032;-87
2022/01/17 02:35:51;;;;;;;3.67;2.13;;;9.20;79.30;;;;;;5057039;28;20025;-86
2022/01/17 02:38:22;;;;;;;3.47;2.33;;;9.20;79.30;;;;;;5050655;28;20032;-87
2022/01/17 02:40:55;;;;;;;5.30;2.17;;;9.20;79.30;;;;;;5025278;28;20025;-86
2022/01/17 02:43:31;;;;;;;3.70;2.30;;;9.20;79.30;;;;;;5037035;28;20025;-87
2022/01/17 02:48:31;;;;;;;4.22;2.30;;;9.20;79.30;;;;;;5082335;28;20036;-86
2022/01/17 02:51:01;;;;;;;4.45;1.98;;;9.20;79.30;;;;;;5038289;28;20052;-86
2022/01/17 02:53:30;;;;;;;4.25;2.03;;;9.20;79.30;;;;;;5053006;28;20052;-86
2022/01/17 02:55:57;;;;;;;3.40;2.00;;;9.20;79.40;;;;;;5029429;28;20048;-85
2022/01/17 02:58:34;;;;;;;3.72;2.05;;;9.20;79.30;;;;;;5039613;28;20043;-85
2022/01/17 03:01:07;;;;;;;3.75;1.98;;;9.10;79.30;;;;;;5070507;28;20049;-87
2022/01/17 03:03:36;;;;;;;4.05;1.90;;;9.10;79.30;;;;;;5051411;28;20076;-86
2022/01/17 03:06:03;;;;;;;3.60;1.83;;;9.10;79.30;;;;;;5038377;28;20546;-86
2022/01/17 03:08:33;;;;;;;3.72;2.10;;;9.10;79.30;;;;;;5054704;28;20091;-86
2022/01/17 03:11:05;;;;;;;4.18;2.00;;;9.10;79.30;;;;;;5036363;28;20028;-88
2022/01/17 03:13:44;;;;;;;;;;;;;;;;;;;;;
2022/01/17 03:16:16;;;;;;;2.83;1.73;;;9.10;79.30;;;;;;5070474;28;20059;-86
2022/01/17 03:18:53;;;;;;;4.93;2.20;;;9.10;79.30;;;;;;5045009;28;20123;-87
2022/01/17 03:21:32;;;;;;;;;;;;;;;;;;;;;
2022/01/17 03:24:08;;;;;;;5.25;1.88;;;9.10;79.30;;;;;;5071044;28;20469;-86
2022/01/17 03:26:37;;;;;;;3.13;1.83;;;9.10;79.30;;;;;;5033902;28;20031;-86
2022/01/17 03:29:07;;;;;;;2.92;1.85;;;9.10;79.30;;;;;;5046885;28;20029;-86
2022/01/17 03:31:37;;;;;;;2.60;1.83;;;9.10;79.40;;;;;;5038828;28;20067;-89
2022/01/17 03:34:16;;;;;;;3.90;2.10;;;9.10;79.30;;;;;;5023635;28;20047;-86
2022/01/17 03:36:54;;;;;;;4.55;1.73;;;9.10;79.30;;;;;;5050038;28;20037;-86
2022/01/17 03:39:20;;;;;;;2.97;1.50;;;9.10;79.30;;;;;;5039622;28;20115;-90
2022/01/17 03:41:48;;;;;;;2.47;1.70;;;9.10;79.30;;;;;;5038870;28;20027;-86
2022/01/17 03:44:23;;;;;;;2.80;1.67;;;9.00;79.30;;;;;;5038943;28;20051;-86
2022/01/17 03:46:52;;;;;;;2.03;1.45;;;9.00;79.30;;;;;;5049626;28;20029;-85
2022/01/17 03:49:22;;;;;;;4.43;1.80;;;9.00;79.30;;;;;;5038004;28;20041;-87
2022/01/17 03:51:48;;;;;;;3.78;1.38;;;9.00;79.30;;;;;;5059706;28;20045;-88
2022/01/17 03:54:16;;;;;;;3.15;1.70;;;9.00;79.30;;;;;;5058995;28;20033;-85
2022/01/17 03:56:42;;;;;;;2.00;1.40;;;9.00;79.30;;;;;;5064345;28;20032;-85
2022/01/17 03:59:13;;;;;;;2.97;1.55;;;9.00;79.30;;;;;;5031064;28;20111;-85
2022/01/17 04:01:40;;;;;;;3.60;1.67;;;9.00;79.30;;;;;;5050268;28;20033;-86
2022/01/17 04:04:07;;;;;;;2.45;1.40;;;9.00;79.30;;;;;;5040082;28;20054;-88
2022/01/17 04:06:36;;;;;;;1.83;1.50;;;9.00;79.30;;;;;;5067773;28;20024;-86
2022/01/17 04:09:02;;;;;;;5.50;1.52;;;9.00;79.30;;;;;;5057856;28;20057;-87
2022/01/17 04:11:40;;;;;;;1.63;1.30;;;8.90;79.30;;;;;;5056317;28;20148;-85
2022/01/17 04:14:09;;;;;;;3.97;2.10;;;8.90;79.30;;;;;;5055036;28;20035;-85
2022/01/17 04:16:38;;;;;;;3.58;1.40;;;8.90;79.30;;;;;;5045600;28;20021;-87
2022/01/17 04:19:06;;;;;;;5.35;1.45;;;8.90;79.30;;;;;;5065271;28;20031;-86
2022/01/17 04:21:35;;;;;;;2.42;1.50;;;8.90;79.30;;;;;;5034125;28;20025;-88
2022/01/17 04:24:04;;;;;;;3.72;1.60;;;8.90;79.30;;;;;;5049372;28;20077;-85
2022/01/17 04:26:37;;;;;;;3.70;1.30;;;8.90;79.30;;;;;;5051648;28;20373;-86
2022/01/17 04:29:03;;;;;;;2.90;1.38;;;8.90;79.30;;;;;;5060342;28;20106;-86
2022/01/17 04:31:29;;;;;;;4.75;1.60;;;8.90;79.30;;;;;;5053581;28;20032;-85
2022/01/17 04:34:04;;;;;;;2.80;1.50;;;8.90;79.30;;;;;;5050729;28;20553;-85
2022/01/17 04:36:37;;;;;;;2.35;1.35;;;8.90;79.30;;;;;;5062887;28;20028;-86
2022/01/17 04:39:04;;;;;;;5.32;1.35;;;8.80;79.20;;;;;;5049655;28;20075;-85
2022/01/17 04:41:38;;;;;;;3.13;1.42;;;8.80;79.20;;;;;;5053779;28;20033;-86
2022/01/17 04:46:52;;;;;;;1.77;1.25;;;8.80;79.20;;;;;;5087382;28;20085;-86
2022/01/17 04:49:24;;;;;;;3.53;1.23;;;8.80;79.20;;;;;;5047113;28;20057;-85
2022/01/17 04:51:53;;;;;;;4.90;1.48;;;8.80;79.20;;;;;;5039742;28;20051;-86
2022/01/17 04:54:40;;;;;;;2.35;1.42;;;8.70;79.20;;;;;;5057955;28;20123;-85
2022/01/17 04:57:08;;;;;;;3.25;1.40;;;8.80;79.30;;;;;;5054788;28;20477;-87
2022/01/17 04:59:34;;;;;;;3.78;1.30;;;8.70;79.20;;;;;;5026258;28;20029;-85
2022/01/17 05:02:00;;;;;;;1.55;1.30;;;8.70;79.20;;;;;;5049803;28;20055;-90
2022/01/17 05:04:31;;;;;;;3.20;1.60;;;8.70;79.20;;;;;;5062763;28;20024;-88
2022/01/17 05:07:02;;;;;;;2.03;1.30;;;8.70;79.20;;;;;;5072193;28;20029;-85
2022/01/17 05:09:29;;;;;;;2.70;1.30;;;8.70;79.20;;;;;;5061386;28;20044;-89
2022/01/17 05:11:57;;;;;;;2.58;1.30;;;8.70;79.20;;;;;;5061008;28;20074;-88
2022/01/17 05:14:25;;;;;;;1.85;1.13;;;8.70;79.20;;;;;;5046017;28;20025;-87
2022/01/17 05:17:19;;;;;;;3.53;1.50;;;8.70;79.20;;;;;;5035630;28;20055;-86
2022/01/17 05:19:56;;;;;;;1.92;1.25;;;8.70;79.20;;;;;;5034498;28;20029;-86
2022/01/17 05:22:23;;;;;;;4.35;1.70;;;8.70;79.10;;;;;;5034103;28;20029;-88
2022/01/17 05:24:52;;;;;;;3.67;1.40;;;8.60;79.10;;;;;;5073747;28;20052;-86
2022/01/17 05:27:20;;;;;;;1.15;1.10;;;8.60;79.10;;;;;;5043194;28;20029;-87
2022/01/17 05:29:46;;;;;;;4.35;1.73;;;8.70;79.20;;;;;;5042207;28;20039;-88
2022/01/17 05:32:13;;;;;;;3.10;1.67;;;8.60;79.20;;;;;;5044952;28;20021;-87
2022/01/17 05:34:42;;;;;;;2.55;1.40;;;8.60;79.20;;;;;;5042129;28;20056;-86
2022/01/17 05:37:13;;;;;;;4.38;1.42;;;8.60;79.20;;;;;;5062884;28;20053;-86
2022/01/17 05:39:42;;;;;;;2.72;1.40;;;8.60;79.20;;;;;;5034336;28;20111;-86
2022/01/17 05:42:09;;;;;;;1.38;1.15;;;8.60;79.10;;;;;;5049419;28;20468;-86
2022/01/17 05:44:36;;;;;;;3.88;1.38;;;8.60;79.20;;;;;;5036045;28;20055;-85
2022/01/17 05:47:02;;;;;;;4.03;1.60;;;8.60;79.20;;;;;;5053947;28;20458;-85
2022/01/17 05:49:28;;;;;;;1.63;1.30;;;8.60;79.20;;;;;;5053161;28;20044;-85
2022/01/17 05:51:56;;;;;;;2.42;1.40;;;8.50;79.10;;;;;;5054865;28;20040;-86
2022/01/17 05:54:25;;;;;;;2.78;1.30;;;8.60;79.20;;;;;;5055809;28;20101;-86
2022/01/17 05:57:17;;;;;;;3.45;1.42;;;8.50;79.10;;;;;;5059037;28;21635;-85
2022/01/17 05:59:48;;;;;;;2.83;1.43;;;8.50;79.10;;;;;;5080618;28;20039;-85
2022/01/17 06:02:14;;;;;;;3.78;1.63;;;8.50;79.10;;;;;;5013388;28;20040;-85
2022/01/17 06:04:42;;;;;;;2.00;1.27;;;8.50;79.10;;;;;;5061936;28;20466;-87
2022/01/17 06:07:11;;;;;;;2.67;1.27;;;8.50;79.10;;;;;;5035116;28;20496;-86
2022/01/17 06:09:39;;;;;;;3.63;1.40;;;8.50;79.20;;;;;;5047690;28;20654;-85
2022/01/17 06:12:11;;;;;;;2.40;1.63;;;8.50;79.20;;;;;;5037079;28;20025;-87
2022/01/17 06:14:38;;;;;;;3.03;1.70;;;8.50;79.80;;;;;;5055552;28;20025;-84
2022/01/17 06:17:04;;;;;;;2.95;1.60;;;8.50;79.20;;;;;;5038009;28;20052;-86
2022/01/17 06:19:30;;;;;;;1.98;1.50;;;8.40;79.20;;;;;;5048912;28;20044;-86
2022/01/17 06:21:57;;;;;;;2.60;1.80;;;8.40;79.20;;;;;;5062719;28;20032;-89
2022/01/17 06:24:23;;;;;;;2.30;1.70;;;8.40;79.10;;;;;;5043786;28;20031;-84
2022/01/17 06:26:58;;;;;;;4.15;1.98;;;8.40;79.20;;;;;;5054838;28;20115;-82
2022/01/17 06:29:25;;;;;;;3.65;1.77;;;8.40;79.20;;;;;;5050920;28;20502;-84
2022/01/17 06:31:51;;;;;;;2.92;1.83;;;8.40;79.10;;;;;;5061292;28;20020;-83
2022/01/17 06:34:17;;;;;;;4.55;2.05;;;8.40;79.10;;;;;;5057452;28;20039;-83
2022/01/17 06:36:43;;;;;;;2.47;1.77;;;8.40;79.10;;;;;;5070499;28;20040;-84
2022/01/17 06:39:10;;;;;;;5.03;2.20;;;8.40;79.20;;;;;;5046514;28;20029;-83
2022/01/17 06:41:38;;;;;;;4.68;2.50;;;8.30;79.10;;;;;;5047238;28;20042;-86
2022/01/17 06:44:04;;;;;;;4.65;2.30;;;8.30;79.10;;;;;;5046913;28;20030;-83
2022/01/17 06:46:30;;;;;;;3.42;2.20;;;8.30;79.10;;;;;;5028010;28;20029;-83
2022/01/17 06:48:59;;;;;;;4.38;2.10;;;8.30;79.10;;;;;;5048740;28;20037;-83
2022/01/17 06:51:25;;;;;;;4.18;2.40;;;8.30;79.10;;;;;;5048232;28;20033;-84
2022/01/17 06:53:51;;;;;;;5.85;2.70;;;8.30;79.20;;;;;;5034745;28;20060;-83
2022/01/17 06:56:18;;;;;;;5.28;2.85;;;8.30;79.20;;;;;;5021242;28;20042;-84
2022/01/17 06:58:44;;;;;;;4.53;2.80;;;8.30;79.10;;;;;;5035208;28;20034;-84
2022/01/17 07:01:13;;;;;;;5.07;2.80;;;8.30;79.10;;;;;;5002254;28;20056;-84
2022/01/17 07:03:40;;;;;;;5.25;2.75;;;8.30;79.20;;;;;;5038607;28;20508;-84
2022/01/17 07:06:06;;;;;;;4.25;2.80;;;8.30;79.20;;;;;;5029661;28;20500;-83
2022/01/17 07:08:32;;;;;;;5.15;2.70;;;8.30;79.10;;;;;;5006260;28;20120;-84
2022/01/17 07:10:58;;;;;;;4.93;3.13;;;8.30;79.20;;;;;;4996919;28;20523;-84
2022/01/17 07:13:24;;;;;;;5.40;3.08;;;8.30;79.20;;;;;;5029268;28;20425;-83
2022/01/17 07:15:49;;;;;;;4.80;2.92;;;8.30;79.20;;;;;;5016947;28;20476;-84
2022/01/17 07:18:15;;;;;;;5.68;3.25;;;8.20;79.10;;;;;;5019433;28;20489;-82
2022/01/17 07:20:44;;;;;;;5.30;3.22;;;8.20;79.10;;;;;;5025417;28;20033;-83
2022/01/17 07:23:13;;;;;;;5.20;3.03;;;8.20;79.10;;;;;;5025607;28;20029;-83
2022/01/17 07:25:41;;;;;;;4.93;2.92;;;8.20;79.10;;;;;;5020266;28;20033;-85
2022/01/17 07:28:12;;;;;;;4.97;3.40;;;8.20;79.10;;;;;;5022581;28;20048;-83
2022/01/17 07:30:39;;;;;;;6.22;3.22;;;8.20;79.10;;;;;;5020414;28;20045;-83
2022/01/17 07:33:06;;;;;;;4.85;3.22;;;8.20;79.20;;;;;;5038922;28;20088;-82
2022/01/17 07:35:34;;;;;;;6.55;3.22;;;8.20;79.20;;;;;;5002512;28;20065;-83
2022/01/17 07:38:03;;;;;;;4.75;3.03;;;8.20;79.20;;;;;;5014133;28;20096;-86
2022/01/17 07:40:30;;;;;;;7.25;3.55;;;8.20;79.20;;;;;;5021135;28;20025;-83
2022/01/17 07:42:56;;;;;;;7.43;3.55;;;8.20;79.20;;;;;;5012469;28;20053;-83
2022/01/17 07:45:22;;;;;;;5.97;3.78;;;8.20;79.20;;;;;;5035660;28;20424;-82
2022/01/17 07:50:23;;;;;;;7.20;3.83;;;8.20;79.20;;;;;;5057338;28;20123;-86
2022/01/17 07:53:16;;;;;;;4.93;3.38;;;8.10;79.20;;;;;;5037061;28;20139;-86
2022/01/17 07:55:49;;;;;;;5.00;3.35;;;8.20;79.40;;;;;;5067473;28;20055;-86
2022/01/17 07:58:47;;;;;;;;;;;;;;;;;;;;;
2022/01/17 08:01:28;;;;;;;6.97;3.65;;;8.20;79.30;;;;;;5060794;28;20033;-86
2022/01/17 08:04:32;;;;;;;6.18;3.88;;;8.10;79.20;;;;;;5043514;28;20070;-87
2022/01/17 08:07:05;;;;;;;7.53;4.10;;;8.10;79.30;;;;;;5067256;28;20031;-86
2022/01/17 08:09:40;;;;;;;7.88;4.13;;;8.10;79.20;;;;;;5035784;28;20500;-86
2022/01/17 08:12:26;;;;;;;5.35;3.78;;;8.10;79.30;;;;;;5053868;28;20064;-87
2022/01/17 08:15:18;;;;;;;8.43;3.97;;;8.10;79.30;;;;;;5076635;28;20037;-85
2022/01/17 08:18:12;;;;;;;7.07;4.07;;;8.10;79.20;;;;;;5054267;28;20040;-86
2022/01/17 08:20:58;;;;;;;5.32;3.97;;;8.10;79.20;;;;;;5029103;28;20028;-86
2022/01/17 08:23:41;;;;;;;7.63;4.82;;;8.10;79.30;;;;;;5045346;28;20039;-87
2022/01/17 08:26:42;;;;;;;6.17;4.17;;;8.10;79.30;;;;;;5049619;28;20172;-86
2022/01/17 08:29:28;;;;;;;6.88;4.63;;;8.10;79.30;;;;;;5043020;28;20052;-87
2022/01/17 08:32:09;;;;;;;7.63;4.93;;;8.10;79.30;;;;;;5029914;28;20075;-85
2022/01/17 08:34:41;;;;;;;8.60;4.65;;;8.20;79.40;;;;;;5042691;28;20028;-86
2022/01/17 08:37:11;;;;;;;8.30;4.50;;;8.10;79.40;;;;;;5056257;28;20031;-86
2022/01/17 08:39:48;;;;;;;7.47;4.60;;;8.20;79.40;;;;;;5046716;28;20024;-86
2022/01/17 08:42:21;;;;;;;6.93;4.60;;;8.10;79.40;;;;;;5055562;28;20079;-86
2022/01/17 08:45:08;;;;;;;6.60;4.15;;;8.20;79.40;;;;;;5026915;28;20044;-84
2022/01/17 08:47:38;;;;;;;8.38;4.82;;;8.20;79.50;;;;;;5034361;28;20039;-86
2022/01/17 08:50:18;;;;;;;7.60;4.88;;;8.10;79.40;;;;;;5028504;28;20028;-86
2022/01/17 08:53:07;;;;;;;7.20;4.65;;;8.20;79.50;;;;;;5041975;28;20033;-86
2022/01/17 08:55:39;;;;;;;6.93;4.55;;;8.20;79.50;;;;;;5058781;28;20037;-87
2022/01/17 08:58:17;;;;;;;7.22;4.57;;;8.20;79.40;;;;;;5052752;28;20039;-86
2022/01/17 09:00:49;;;;;;;6.38;4.55;;;8.20;79.40;;;;;;5038069;28;20035;-87
2022/01/17 09:03:25;;;;;;;6.57;4.82;;;8.20;79.40;;;;;;5050459;28;20033;-87
2022/01/17 09:06:13;;;;;;;6.78;4.65;;;8.20;79.50;;;;;;5042506;28;20105;-85
2022/01/17 09:08:55;;;;;;;8.10;4.95;;;8.20;79.40;;;;;;5050963;28;20036;-86
2022/01/17 09:11:42;;;;;;;8.00;4.78;;;8.20;79.50;;;;;;5040153;28;20047;-86
2022/01/17 09:14:21;;;;;;;5.45;4.00;;;8.20;79.40;;;;;;5057037;28;20060;-86
2022/01/17 09:17:09;;;;;;;7.60;4.95;;;8.20;79.40;;;;;;5041102;28;20467;-83
2022/01/17 09:19:37;;;;;;;7.35;4.78;;;8.30;80.00;;;;;;5059276;28;20029;-83
2022/01/17 09:22:38;;;;;;;7.53;4.63;;;8.30;79.50;;;;;;5036470;28;20024;-83
2022/01/17 09:25:06;;;;;;;7.43;4.40;;;8.30;79.60;;;;;;5050723;28;20098;-83
2022/01/17 09:27:37;;;;;;;7.40;5.00;;;8.30;79.40;;;;;;5065921;28;20112;-85
2022/01/17 09:30:09;;;;;;;7.32;4.80;;;8.30;79.50;;;;;;5036547;28;20025;-83
2022/01/17 09:32:36;;;;;;;6.57;4.30;;;8.30;79.50;;;;;;5069011;28;20060;-84
2022/01/17 09:35:05;;;;;;;6.53;4.32;;;8.30;79.50;;;;;;5032455;28;20037;-82
2022/01/17 09:37:36;;;;;;;6.05;4.43;;;8.30;79.50;;;;;;5051471;28;20112;-86
2022/01/17 09:40:05;;;;;;;6.15;4.28;;;8.40;79.50;;;;;;5053088;28;20075;-85
2022/01/17 09:42:38;;;;;;;5.85;4.20;;;8.40;79.50;;;;;;5046336;28;20045;-85
2022/01/17 09:45:15;;;;;;;8.40;4.55;;;8.30;79.50;;;;;;5050282;28;20422;-83
2022/01/17 09:47:46;;;;;;;6.78;4.65;;;8.40;79.50;;;;;;5049258;28;20043;-86
2022/01/17 09:50:56;;;;;;;7.20;4.65;;;8.40;79.50;;;;;;5078556;28;20491;-84
2022/01/17 09:53:33;;;;;;;6.65;4.43;;;8.40;79.50;;;;;;5060516;28;20036;-85
2022/01/17 09:56:13;;;;;;;6.88;4.63;;;8.40;79.40;;;;;;5069356;28;20056;-85
2022/01/17 09:59:11;;;;;;;7.05;4.47;;;8.40;79.50;;;;;;5070095;28;20036;-86
2022/01/17 10:01:56;;;;;;;;;;;;;;;;;;;;;
2022/01/17 10:04:24;;;;;;;6.90;4.93;;;8.40;79.40;;;;;;5048732;28;20116;-85
2022/01/17 10:07:01;;;;;;;8.25;4.80;;;8.40;79.50;;;;;;5046401;28;20048;-86
2022/01/17 10:10:04;;;;;;;6.30;4.18;;;8.40;79.50;;;;;;5063715;28;20048;-85
2022/01/17 10:12:42;;;;;;;6.03;3.85;;;8.50;79.60;;;;;;5039041;28;20031;-84
2022/01/17 10:15:22;;;;;;;6.88;4.30;;;8.50;79.50;;;;;;5057731;28;20021;-85
2022/01/17 10:17:56;;;;;;;7.15;4.43;;;8.50;79.50;;;;;;5038841;28;20041;-86
2022/01/17 10:20:25;;;;;;;8.20;4.75;;;8.50;79.50;;;;;;5051543;28;20477;-85
2022/01/17 10:23:27;;;;;;;6.22;4.30;;;8.50;79.50;;;;;;5064452;28;20032;-86
2022/01/17 10:30:20;;;;;;;8.05;4.97;;;8.50;79.50;;;;;;5069329;28;20685;-87
2022/01/17 10:35:59;;;;;;;7.10;4.03;;;8.60;79.50;;;;;;5093773;28;20040;-85
2022/01/17 10:39:15;;;;;;;6.32;4.00;;;8.50;79.60;;;;;;5046391;28;20044;-85
2022/01/17 10:42:37;;;;;;;;;;;;;;;;;;;;;
2022/01/17 10:45:48;;;;;;;5.57;3.28;;;8.60;79.60;;;;;;5073690;28;20115;-86
2022/01/17 10:49:00;;;;;;;6.18;3.92;;;8.60;79.60;;;;;;5058153;28;20029;-85
2022/01/17 10:51:41;;;;;;;6.30;3.58;;;8.60;79.50;;;;;;5046352;28;20038;-84
2022/01/17 10:54:22;;;;;;;6.63;3.67;;;8.60;79.50;;;;;;5052280;28;20061;-85
2022/01/17 11:00:08;;;;;;;6.63;4.27;;;8.70;79.60;;;;;;5006166;27;2784387;-84
2022/01/17 11:03:16;;;;;;;7.03;3.80;;;8.70;79.50;;;;;;5087839;28;20123;-84
2022/01/17 11:06:10;;;;;;;7.03;3.90;;;8.70;79.60;;;;;;5072108;28;20047;-84
2022/01/17 11:08:47;;;;;;;7.40;3.50;;;8.80;79.60;;;;;;5057972;28;20032;-85
2022/01/17 11:11:24;;;;;;;5.93;3.60;;;8.80;79.50;;;;;;5070399;28;20055;-84
2022/01/17 11:14:09;;;;;;;4.70;3.30;;;8.80;79.50;;;;;;5102393;28;20012;-87
2022/01/17 11:16:48;;;;;;;5.20;3.28;;;8.80;79.50;;;;;;5089316;28;20032;-85
2022/01/17 11:22:48;;;;;;;4.82;3.03;;;8.80;79.50;;;;;;5020980;28;20041;-84
2022/01/17 11:25:33;;;;;;;5.57;3.35;;;8.90;79.40;;;;;;5091277;28;20035;-84
2022/01/17 11:28:27;;;;;;;5.75;3.30;;;8.90;79.50;;;;;;5071326;28;20475;-86
2022/01/17 11:31:15;;;;;;;4.43;2.97;;;8.90;79.60;;;;;;5087088;28;20035;-82
2022/01/17 11:34:09;;;;;;;7.45;3.40;;;8.90;79.40;;;;;;5075599;28;20032;-83
2022/01/17 11:36:38;;;;;;;5.68;3.50;;;9.00;79.60;;;;;;5068673;28;20476;-82
2022/01/17 11:39:07;;;;;;;5.20;3.20;;;8.90;79.30;;;;;;5074422;28;20047;-84
2022/01/17 11:41:35;;;;;;;4.88;2.88;;;9.00;79.50;;;;;;5062849;28;20036;-83
2022/01/17 11:44:06;;;;;;;6.82;3.15;;;9.00;79.50;;;;;;5072552;28;20192;-85
2022/01/17 11:46:51;;;;;;;5.68;3.55;;;9.00;79.40;;;;;;5074418;28;20027;-84
2022/01/17 11:49:37;;;;;;;6.32;2.78;;;9.00;79.40;;;;;;5072346;28;20093;-83
2022/01/17 11:52:35;;;;;;;6.88;3.00;;;9.00;79.50;;;;;;5071836;28;20036;-80
2022/01/17 11:58:31;;;;;;;4.68;2.97;;;9.10;79.30;;;;;;5054355;28;20044;-81
2022/01/17 12:00:57;;;;;;;4.90;2.42;;;9.10;79.50;;;;;;5060861;28;20118;-79
2022/01/17 12:03:29;;;;;;;4.55;2.80;;;9.10;79.30;;;;;;5089264;28;20036;-79
2022/01/17 12:06:03;;;;;;;6.22;2.67;;;9.10;79.40;;;;;;5072224;28;20464;-81
2022/01/17 12:08:30;;;;;;;4.53;2.75;;;9.20;79.40;;;;;;5055465;28;20096;-81
2022/01/17 12:11:02;;;;;;;5.15;2.95;;;9.20;79.40;;;;;;5064129;28;20019;-81
2022/01/17 12:13:42;;;;;;;4.70;2.67;;;9.20;79.40;;;;;;5075259;28;20039;-81
2022/01/17 12:16:36;;;;;;;7.43;3.00;;;9.20;79.40;;;;;;5049620;28;20028;-82
2022/01/17 12:19:03;;;;;;;4.32;2.78;;;9.20;79.50;;;;;;5066014;28;20119;-82
2022/01/17 12:21:44;;;;;;;5.65;2.65;;;9.30;79.40;;;;;;5077205;28;20032;-82
2022/01/17 12:24:19;;;;;;;4.25;2.30;;;9.30;79.50;;;;;;5049861;28;20381;-82
2022/01/17 12:27:03;;;;;;;4.82;2.35;;;9.30;79.40;;;;;;5074946;28;20063;-83
2022/01/17 12:29:52;;;;;;;6.27;2.67;;;9.30;79.30;;;;;;5076335;28;20043;-83
2022/01/17 12:32:24;;;;;;;5.28;2.50;;;9.40;79.50;;;;;;5069842;28;20016;-83
2022/01/17 12:34:53;;;;;;;5.22;2.35;;;9.40;79.40;;;;;;5058743;28;20082;-85
2022/01/17 12:37:46;;;;;;;5.72;2.50;;;9.40;79.40;;;;;;5052747;28;20487;-83
2022/01/17 12:40:31;;;;;;;6.78;2.33;;;9.40;79.50;;;;;;5068796;28;20048;-83
2022/01/17 12:43:24;;;;;;;7.55;2.88;;;9.40;79.40;;;;;;5073281;28;20028;-82
2022/01/17 12:46:01;;;;;;;4.13;1.95;;;9.50;79.40;;;;;;5071414;28;20039;-83
2022/01/17 12:48:49;;;;;;;4.88;2.22;;;9.50;79.40;;;;;;5059159;28;20024;-83
2022/01/17 12:51:18;;;;;;;4.55;2.10;;;9.50;79.50;;;;;;5058902;28;20385;-80
2022/01/17 12:53:51;;;;;;;4.88;2.47;;;9.50;79.40;;;;;;5059050;28;20028;-84
2022/01/17 12:56:28;;;;;;;6.35;2.20;;;9.60;79.50;;;;;;5063575;28;20044;-86
2022/01/17 12:59:12;;;;;;;;;;;;;;;;;;;;;
2022/01/17 13:02:01;;;;;;;4.78;2.00;;;9.60;79.40;;;;;;5066159;28;20028;-85
2022/01/17 13:04:37;;;;;;;4.80;1.73;;;9.70;79.50;;;;;;5054586;28;20025;-84
2022/01/17 13:07:07;;;;;;;4.00;2.17;;;9.70;79.40;;;;;;5076501;28;20484;-84
2022/01/17 13:09:40;;;;;;;4.85;1.92;;;9.70;79.40;;;;;;5057456;28;20020;-84
2022/01/17 13:12:09;;;;;;;8.15;2.20;;;9.70;79.40;;;;;;5094357;28;20095;-83
2022/01/17 13:14:35;;;;;;;7.05;2.20;;;9.80;79.40;;;;;;5044293;28;20060;-83
2022/01/17 13:17:07;;;;;;;5.72;2.17;;;9.80;79.40;;;;;;5058845;28;20060;-85
2022/01/17 13:19:35;;;;;;;7.85;2.10;;;9.80;79.40;;;;;;5058574;28;20028;-84
2022/01/17 13:22:03;;;;;;;5.68;2.22;;;9.80;79.40;;;;;;5066875;28;20075;-85
2022/01/17 13:27:09;;;;;;;5.30;2.10;;;9.90;79.40;;;;;;5074502;28;20198;-84
2022/01/17 13:29:45;;;;;;;5.55;2.00;;;9.90;79.40;;;;;;5063886;28;20032;-84
2022/01/17 13:32:18;;;;;;;6.15;2.10;;;9.90;79.40;;;;;;5064447;28;20050;-85
2022/01/17 13:34:46;;;;;;;4.15;1.73;;;10.00;79.40;;;;;;5035928;28;20032;-86
2022/01/17 13:37:14;;;;;;;5.43;1.98;;;9.90;79.30;;;;;;5054607;28;20035;-85
2022/01/17 13:39:50;;;;;;;5.05;1.60;;;10.00;79.40;;;;;;5058314;28;20053;-85
2022/01/17 13:42:23;;;;;;;3.90;1.70;;;10.00;79.40;;;;;;5058721;28;20426;-84
2022/01/17 13:44:52;;;;;;;3.55;1.92;;;10.10;79.40;;;;;;5058710;28;20104;-84
2022/01/17 13:47:21;;;;;;;5.57;2.25;;;10.10;79.40;;;;;;5065080;28;20036;-84
2022/01/17 13:49:50;;;;;;;7.75;2.10;;;10.10;79.40;;;;;;5056512;28;20021;-83
2022/01/17 13:52:27;;;;;;;4.35;1.83;;;10.10;79.40;;;;;;5054717;28;20059;-84
2022/01/17 13:54:54;;;;;;;5.65;1.85;;;10.10;79.40;;;;;;5054775;28;20020;-85
2022/01/17 13:57:23;;;;;;;6.70;1.92;;;10.10;79.30;;;;;;5056935;28;20028;-85
2022/01/17 14:00:15;;;;;;;4.97;2.03;;;10.10;79.30;;;;;;5058603;28;20741;-85
2022/01/17 14:02:41;;;;;;;8.00;1.85;;;10.20;79.40;;;;;;5069783;28;20039;-85
2022/01/17 14:05:15;;;;;;;5.40;1.98;;;10.20;79.30;;;;;;5051132;28;20484;-85
2022/01/17 14:07:42;;;;;;;5.45;1.80;;;10.20;79.40;;;;;;5059583;28;20020;-84
2022/01/17 14:10:34;;;;;;;5.90;1.98;;;10.20;79.40;;;;;;5053843;28;20397;-83
2022/01/17 14:13:09;;;;;;;3.78;1.90;;;10.20;79.50;;;;;;5059163;28;20465;-85
2022/01/17 14:15:38;;;;;;;4.00;1.67;;;10.30;79.30;;;;;;5056665;28;20024;-84
2022/01/17 14:18:14;;;;;;;3.75;1.65;;;10.30;79.40;;;;;;5058737;28;20028;-84